sensor_id;sensor_type;location;lat;lon;timestamp;pressure;altitude;pressure_sealevel;temperature;humidity
25238;BME280;13185;50.872;5.306;2024-01-30T00:01:13;102355.06;;;7.33;100.00
25238;BME280;13185;50.872;5.306;2024-01-30T00:03:39;102353.31;;;7.32;100.00
25238;BME280;13185;50.872;5.306;2024-01-30T00:06:04;102348.03;;;7.30;100.00
25238;BME280;13185;50.872;5.306;2024-01-30T00:08:30;102359.66;;;7.28;100.00
25238;BME280;13185;50.872;5.306;2024-01-30T00:10:55;102344.59;;;7.25;100.00
25238;BME280;13185;50.872;5.306;2024-01-30T00:13:21;102344.66;;;7.23;100.00
25238;BME280;13185;50.872;5.306;2024-01-30T00:15:46;102354.44;;;7.23;100.00
25238;BME280;13185;50.872;5.306;2024-01-30T00:18:12;102350.03;;;7.22;100.00
25238;BME280;13185;50.872;5.306;2024-01-30T00:20:38;102348.28;;;7.21;100.00
25238;BME280;13185;50.872;5.306;2024-01-30T00:23:03;102353.63;;;7.21;100.00
25238;BME280;13185;50.872;5.306;2024-01-30T00:25:29;102343.88;;;7.18;100.00
25238;BME280;13185;50.872;5.306;2024-01-30T00:27:56;102348.38;;;7.16;100.00
25238;BME280;13185;50.872;5.306;2024-01-30T00:30:21;102347.56;;;7.14;100.00
25238;BME280;13185;50.872;5.306;2024-01-30T00:32:47;102340.47;;;7.13;100.00
25238;BME280;13185;50.872;5.306;2024-01-30T00:35:13;102342.31;;;7.11;100.00
25238;BME280;13185;50.872;5.306;2024-01-30T00:37:38;102339.69;;;7.10;100.00
25238;BME280;13185;50.872;5.306;2024-01-30T00:40:04;102326.34;;;7.10;100.00
25238;BME280;13185;50.872;5.306;2024-01-30T00:42:31;102329.03;;;7.10;100.00
25238;BME280;13185;50.872;5.306;2024-01-30T00:44:57;102332.53;;;7.12;100.00
25238;BME280;13185;50.872;5.306;2024-01-30T00:47:23;102338.69;;;7.14;100.00
25238;BME280;13185;50.872;5.306;2024-01-30T00:49:48;102335.97;;;7.15;100.00
25238;BME280;13185;50.872;5.306;2024-01-30T00:52:15;102341.25;;;7.17;100.00
25238;BME280;13185;50.872;5.306;2024-01-30T00:54:41;102341.31;;;7.15;100.00
25238;BME280;13185;50.872;5.306;2024-01-30T00:57:07;102334.22;;;7.14;100.00
25238;BME280;13185;50.872;5.306;2024-01-30T00:59:32;102337.75;;;7.15;100.00
25238;BME280;13185;50.872;5.306;2024-01-30T01:01:58;102326.06;;;7.19;100.00
25238;BME280;13185;50.872;5.306;2024-01-30T01:04:24;102322.47;;;7.21;100.00
25238;BME280;13185;50.872;5.306;2024-01-30T01:06:52;102323.25;;;7.25;100.00
25238;BME280;13185;50.872;5.306;2024-01-30T01:09:17;102325.88;;;7.27;100.00
25238;BME280;13185;50.872;5.306;2024-01-30T01:11:43;102321.38;;;7.29;100.00
25238;BME280;13185;50.872;5.306;2024-01-30T01:14:09;102319.56;;;7.31;100.00
25238;BME280;13185;50.872;5.306;2024-01-30T01:16:34;102321.34;;;7.30;100.00
25238;BME280;13185;50.872;5.306;2024-01-30T01:19:00;102330.13;;;7.34;100.00
25238;BME280;13185;50.872;5.306;2024-01-30T01:21:26;102321.25;;;7.33;100.00
25238;BME280;13185;50.872;5.306;2024-01-30T01:23:51;102312.38;;;7.33;100.00
25238;BME280;13185;50.872;5.306;2024-01-30T01:26:17;102313.28;;;7.32;100.00
25238;BME280;13185;50.872;5.306;2024-01-30T01:28:42;102319.56;;;7.31;100.00
25238;BME280;13185;50.872;5.306;2024-01-30T01:31:08;102314.22;;;7.29;100.00
25238;BME280;13185;50.872;5.306;2024-01-30T01:33:34;102309.88;;;7.27;100.00
25238;BME280;13185;50.872;5.306;2024-01-30T01:36:01;102314.31;;;7.26;100.00
25238;BME280;13185;50.872;5.306;2024-01-30T01:38:29;102316.16;;;7.24;100.00
25238;BME280;13185;50.872;5.306;2024-01-30T01:40:55;102310.00;;;7.22;100.00
25238;BME280;13185;50.872;5.306;2024-01-30T01:43:21;102307.38;;;7.20;100.00
25238;BME280;13185;50.872;5.306;2024-01-30T01:45:46;102311.84;;;7.20;100.00
25238;BME280;13185;50.872;5.306;2024-01-30T01:48:12;102304.72;;;7.19;100.00
25238;BME280;13185;50.872;5.306;2024-01-30T01:50:38;102283.38;;;7.20;100.00
25238;BME280;13185;50.872;5.306;2024-01-30T01:53:07;102291.38;;;7.20;100.00
25238;BME280;13185;50.872;5.306;2024-01-30T01:55:34;102294.00;;;7.22;100.00
25238;BME280;13185;50.872;5.306;2024-01-30T01:58:01;102293.06;;;7.23;100.00
25238;BME280;13185;50.872;5.306;2024-01-30T02:00:27;102296.63;;;7.23;100.00
25238;BME280;13185;50.872;5.306;2024-01-30T02:02:54;102293.94;;;7.23;100.00
25238;BME280;13185;50.872;5.306;2024-01-30T02:05:21;102295.69;;;7.24;100.00
25238;BME280;13185;50.872;5.306;2024-01-30T02:07:47;102289.44;;;7.26;100.00
25238;BME280;13185;50.872;5.306;2024-01-30T02:10:13;102278.75;;;7.26;100.00
25238;BME280;13185;50.872;5.306;2024-01-30T02:12:39;102286.72;;;7.27;100.00
25238;BME280;13185;50.872;5.306;2024-01-30T02:15:05;102284.91;;;7.28;100.00
25238;BME280;13185;50.872;5.306;2024-01-30T02:17:31;102278.66;;;7.29;100.00
25238;BME280;13185;50.872;5.306;2024-01-30T02:19:56;102276.84;;;7.31;100.00
25238;BME280;13185;50.872;5.306;2024-01-30T02:22:23;102280.28;;;7.34;100.00
25238;BME280;13185;50.872;5.306;2024-01-30T02:24:49;102271.28;;;7.38;100.00
25238;BME280;13185;50.872;5.306;2024-01-30T02:27:15;102274.75;;;7.42;100.00
25238;BME280;13185;50.872;5.306;2024-01-30T02:29:40;102269.31;;;7.45;100.00
25238;BME280;13185;50.872;5.306;2024-01-30T02:32:06;102271.81;;;7.51;100.00
25238;BME280;13185;50.872;5.306;2024-01-30T02:34:33;102276.19;;;7.53;100.00
25238;BME280;13185;50.872;5.306;2024-01-30T02:36:58;102270.63;;;7.61;100.00
25238;BME280;13185;50.872;5.306;2024-01-30T02:39:24;102271.34;;;7.66;100.00
25238;BME280;13185;50.872;5.306;2024-01-30T02:41:49;102273.09;;;7.67;100.00
25238;BME280;13185;50.872;5.306;2024-01-30T02:44:15;102276.56;;;7.69;100.00
25238;BME280;13185;50.872;5.306;2024-01-30T02:46:41;102266.78;;;7.70;100.00
25238;BME280;13185;50.872;5.306;2024-01-30T02:49:06;102269.41;;;7.71;100.00
25238;BME280;13185;50.872;5.306;2024-01-30T02:51:32;102279.19;;;7.72;100.00
25238;BME280;13185;50.872;5.306;2024-01-30T02:53:57;102272.09;;;7.71;100.00
25238;BME280;13185;50.872;5.306;2024-01-30T02:56:23;102271.16;;;7.72;100.00
25238;BME280;13185;50.872;5.306;2024-01-30T02:58:48;102259.56;;;7.73;100.00
25238;BME280;13185;50.872;5.306;2024-01-30T03:01:14;102264.84;;;7.75;100.00
25238;BME280;13185;50.872;5.306;2024-01-30T03:03:39;102257.66;;;7.77;100.00
25238;BME280;13185;50.872;5.306;2024-01-30T03:06:06;102265.63;;;7.78;100.00
25238;BME280;13185;50.872;5.306;2024-01-30T03:08:31;102253.13;;;7.79;100.00
25238;BME280;13185;50.872;5.306;2024-01-30T03:10:57;102254.88;;;7.81;100.00
25238;BME280;13185;50.872;5.306;2024-01-30T03:13:22;102251.28;;;7.81;100.00
25238;BME280;13185;50.872;5.306;2024-01-30T03:15:50;102252.13;;;7.83;100.00
25238;BME280;13185;50.872;5.306;2024-01-30T03:18:15;102256.56;;;7.84;100.00
25238;BME280;13185;50.872;5.306;2024-01-30T03:20:41;102259.22;;;7.84;100.00
25238;BME280;13185;50.872;5.306;2024-01-30T03:23:07;102260.91;;;7.87;100.00
25238;BME280;13185;50.872;5.306;2024-01-30T03:25:32;102260.88;;;7.88;100.00
25238;BME280;13185;50.872;5.306;2024-01-30T03:27:58;102260.00;;;7.88;100.00
25238;BME280;13185;50.872;5.306;2024-01-30T03:30:23;102255.53;;;7.88;100.00
25238;BME280;13185;50.872;5.306;2024-01-30T03:32:49;102259.06;;;7.89;100.00
25238;BME280;13185;50.872;5.306;2024-01-30T03:35:14;102260.75;;;7.93;100.00
25238;BME280;13185;50.872;5.306;2024-01-30T03:37:40;102257.19;;;7.92;100.00
25238;BME280;13185;50.872;5.306;2024-01-30T03:40:06;102248.25;;;7.93;100.00
25238;BME280;13185;50.872;5.306;2024-01-30T03:42:31;102257.16;;;7.94;100.00
25238;BME280;13185;50.872;5.306;2024-01-30T03:44:57;102262.38;;;7.97;100.00
25238;BME280;13185;50.872;5.306;2024-01-30T03:47:22;102259.66;;;7.98;100.00
25238;BME280;13185;50.872;5.306;2024-01-30T03:49:48;102250.81;;;7.96;100.00
25238;BME280;13185;50.872;5.306;2024-01-30T03:52:13;102249.84;;;7.99;100.00
25238;BME280;13185;50.872;5.306;2024-01-30T03:54:39;102256.97;;;7.98;100.00
25238;BME280;13185;50.872;5.306;2024-01-30T03:57:04;102254.38;;;7.97;100.00
25238;BME280;13185;50.872;5.306;2024-01-30T03:59:30;102249.94;;;7.96;100.00
25238;BME280;13185;50.872;5.306;2024-01-30T04:01:56;102258.94;;;7.93;100.00
25238;BME280;13185;50.872;5.306;2024-01-30T04:04:21;102255.41;;;7.93;100.00
25238;BME280;13185;50.872;5.306;2024-01-30T04:06:47;102254.53;;;7.91;100.00
25238;BME280;13185;50.872;5.306;2024-01-30T04:09:13;102249.25;;;7.89;100.00
25238;BME280;13185;50.872;5.306;2024-01-30T04:11:39;102258.25;;;7.87;100.00
25238;BME280;13185;50.872;5.306;2024-01-30T04:14:05;102247.63;;;7.85;100.00
25238;BME280;13185;50.872;5.306;2024-01-30T04:16:30;102248.59;;;7.82;100.00
25238;BME280;13185;50.872;5.306;2024-01-30T04:18:56;102246.00;;;7.79;100.00
25238;BME280;13185;50.872;5.306;2024-01-30T04:21:22;102250.47;;;7.79;100.00
25238;BME280;13185;50.872;5.306;2024-01-30T04:23:48;102247.84;;;7.77;100.00
25238;BME280;13185;50.872;5.306;2024-01-30T04:26:14;102248.72;;;7.78;100.00
25238;BME280;13185;50.872;5.306;2024-01-30T04:28:46;102247.75;;;7.80;100.00
25238;BME280;13185;50.872;5.306;2024-01-30T04:31:11;102247.75;;;7.80;100.00
25238;BME280;13185;50.872;5.306;2024-01-30T04:33:37;102250.41;;;7.82;100.00
25238;BME280;13185;50.872;5.306;2024-01-30T04:36:04;102242.41;;;7.80;100.00
25238;BME280;13185;50.872;5.306;2024-01-30T04:38:30;102242.44;;;7.79;100.00
25238;BME280;13185;50.872;5.306;2024-01-30T04:40:55;102248.63;;;7.81;100.00
25238;BME280;13185;50.872;5.306;2024-01-30T04:43:21;102236.16;;;7.81;100.00
25238;BME280;13185;50.872;5.306;2024-01-30T04:45:47;102246.84;;;7.81;100.00
25238;BME280;13185;50.872;5.306;2024-01-30T04:48:13;102250.41;;;7.82;100.00
25238;BME280;13185;50.872;5.306;2024-01-30T04:50:39;102250.50;;;7.77;100.00
25238;BME280;13185;50.872;5.306;2024-01-30T04:53:04;102250.56;;;7.76;100.00
25238;BME280;13185;50.872;5.306;2024-01-30T04:55:30;102247.03;;;7.75;100.00
25238;BME280;13185;50.872;5.306;2024-01-30T04:57:55;102249.66;;;7.77;100.00
25238;BME280;13185;50.872;5.306;2024-01-30T05:00:21;102255.00;;;7.77;100.00
25238;BME280;13185;50.872;5.306;2024-01-30T05:02:46;102251.44;;;7.76;100.00
25238;BME280;13185;50.872;5.306;2024-01-30T05:05:11;102255.97;;;7.74;100.00
25238;BME280;13185;50.872;5.306;2024-01-30T05:07:40;102251.50;;;7.75;100.00
25238;BME280;13185;50.872;5.306;2024-01-30T05:10:06;102253.28;;;7.74;100.00
25238;BME280;13185;50.872;5.306;2024-01-30T05:12:32;102247.94;;;7.74;100.00
25238;BME280;13185;50.872;5.306;2024-01-30T05:14:57;102241.75;;;7.74;100.00
25238;BME280;13185;50.872;5.306;2024-01-30T05:17:23;102239.06;;;7.74;100.00
25238;BME280;13185;50.872;5.306;2024-01-30T05:19:48;102246.22;;;7.73;100.00
25238;BME280;13185;50.872;5.306;2024-01-30T05:22:14;102242.66;;;7.73;100.00
25238;BME280;13185;50.872;5.306;2024-01-30T05:24:41;102232.94;;;7.70;100.00
25238;BME280;13185;50.872;5.306;2024-01-30T05:27:10;102242.66;;;7.73;100.00
25238;BME280;13185;50.872;5.306;2024-01-30T05:29:36;102231.97;;;7.73;100.00
25238;BME280;13185;50.872;5.306;2024-01-30T05:32:03;102242.66;;;7.73;100.00
25238;BME280;13185;50.872;5.306;2024-01-30T05:34:28;102239.06;;;7.74;100.00
25238;BME280;13185;50.872;5.306;2024-01-30T05:36:54;102236.34;;;7.75;100.00
25238;BME280;13185;50.872;5.306;2024-01-30T05:39:19;102237.16;;;7.77;100.00
25238;BME280;13185;50.872;5.306;2024-01-30T05:41:45;102237.97;;;7.79;100.00
25238;BME280;13185;50.872;5.306;2024-01-30T05:44:10;102238.84;;;7.81;100.00
25238;BME280;13185;50.872;5.306;2024-01-30T05:46:36;102240.59;;;7.82;100.00
25238;BME280;13185;50.872;5.306;2024-01-30T05:49:01;102241.41;;;7.85;100.00
25238;BME280;13185;50.872;5.306;2024-01-30T05:51:27;102238.72;;;7.85;100.00
25238;BME280;13185;50.872;5.306;2024-01-30T05:53:53;102234.22;;;7.87;100.00
25238;BME280;13185;50.872;5.306;2024-01-30T05:56:19;102228.81;;;7.88;100.00
25238;BME280;13185;50.872;5.306;2024-01-30T05:58:45;102231.47;;;7.88;100.00
25238;BME280;13185;50.872;5.306;2024-01-30T06:01:10;102233.19;;;7.91;100.00
25238;BME280;13185;50.872;5.306;2024-01-30T06:03:36;102240.25;;;7.93;100.00
25238;BME280;13185;50.872;5.306;2024-01-30T06:06:01;102229.44;;;7.96;100.00
25238;BME280;13185;50.872;5.306;2024-01-30T06:08:27;102225.78;;;7.99;100.00
25238;BME280;13185;50.872;5.306;2024-01-30T06:10:53;102225.75;;;8.00;100.00
25238;BME280;13185;50.872;5.306;2024-01-30T06:13:18;102236.38;;;8.02;100.00
25238;BME280;13185;50.872;5.306;2024-01-30T06:15:44;102239.03;;;8.03;100.00
25238;BME280;13185;50.872;5.306;2024-01-30T06:18:09;102240.72;;;8.06;100.00
25238;BME280;13185;50.872;5.306;2024-01-30T06:20:35;102238.00;;;8.07;100.00
25238;BME280;13185;50.872;5.306;2024-01-30T06:23:00;102234.38;;;8.08;100.00
25238;BME280;13185;50.872;5.306;2024-01-30T06:25:26;102244.22;;;8.08;100.00
25238;BME280;13185;50.872;5.306;2024-01-30T06:27:51;102232.66;;;8.07;100.00
25238;BME280;13185;50.872;5.306;2024-01-30T06:30:17;102242.41;;;8.08;100.00
25238;BME280;13185;50.872;5.306;2024-01-30T06:32:43;102253.97;;;8.09;100.00
25238;BME280;13185;50.872;5.306;2024-01-30T06:35:09;102251.28;;;8.09;100.00
25238;BME280;13185;50.872;5.306;2024-01-30T06:37:36;102245.06;;;8.08;100.00
25238;BME280;13185;50.872;5.306;2024-01-30T06:40:01;102244.25;;;8.06;100.00
25238;BME280;13185;50.872;5.306;2024-01-30T06:42:27;102242.47;;;8.07;100.00
25238;BME280;13185;50.872;5.306;2024-01-30T06:44:52;102239.78;;;8.07;100.00
25238;BME280;13185;50.872;5.306;2024-01-30T06:47:18;102241.53;;;8.08;100.00
25238;BME280;13185;50.872;5.306;2024-01-30T06:49:43;102249.56;;;8.08;100.00
25238;BME280;13185;50.872;5.306;2024-01-30T06:52:10;102249.56;;;8.08;100.00
25238;BME280;13185;50.872;5.306;2024-01-30T06:54:36;102241.59;;;8.06;100.00
25238;BME280;13185;50.872;5.306;2024-01-30T06:57:02;102244.25;;;8.06;100.00
25238;BME280;13185;50.872;5.306;2024-01-30T06:59:27;102260.28;;;8.06;100.00
25238;BME280;13185;50.872;5.306;2024-01-30T07:01:53;102262.09;;;8.06;100.00
25238;BME280;13185;50.872;5.306;2024-01-30T07:04:18;102250.47;;;8.07;100.00
25238;BME280;13185;50.872;5.306;2024-01-30T07:06:45;102258.44;;;8.08;100.00
25238;BME280;13185;50.872;5.306;2024-01-30T07:09:12;102258.44;;;8.08;100.00
25238;BME280;13185;50.872;5.306;2024-01-30T07:11:38;102270.88;;;8.09;100.00
25238;BME280;13185;50.872;5.306;2024-01-30T07:14:04;102260.06;;;8.13;100.00
25238;BME280;13185;50.872;5.306;2024-01-30T07:16:30;102272.53;;;8.14;100.00
25238;BME280;13185;50.872;5.306;2024-01-30T07:18:55;102278.66;;;8.17;100.00
25238;BME280;13185;50.872;5.306;2024-01-30T07:21:22;102276.78;;;8.19;100.00
25238;BME280;13185;50.872;5.306;2024-01-30T07:23:53;102274.06;;;8.21;100.00
25238;BME280;13185;50.872;5.306;2024-01-30T07:26:19;102275.78;;;8.23;100.00
25238;BME280;13185;50.872;5.306;2024-01-30T07:28:44;102275.78;;;8.23;100.00
25238;BME280;13185;50.872;5.306;2024-01-30T07:31:10;102284.63;;;8.25;100.00
25238;BME280;13185;50.872;5.306;2024-01-30T07:33:35;102286.38;;;8.26;100.00
25238;BME280;13185;50.872;5.306;2024-01-30T07:36:01;102299.69;;;8.28;100.00
25238;BME280;13185;50.872;5.306;2024-01-30T07:38:26;102312.00;;;8.32;100.00
25238;BME280;13185;50.872;5.306;2024-01-30T07:40:52;102301.31;;;8.32;100.00
25238;BME280;13185;50.872;5.306;2024-01-30T07:43:20;102322.66;;;8.35;100.00
25238;BME280;13185;50.872;5.306;2024-01-30T07:45:48;102325.28;;;8.36;100.00
25238;BME280;13185;50.872;5.306;2024-01-30T07:48:14;102325.28;;;8.36;100.00
25238;BME280;13185;50.872;5.306;2024-01-30T07:50:40;102329.66;;;8.39;100.00
25238;BME280;13185;50.872;5.306;2024-01-30T07:53:06;102343.84;;;8.41;100.00
25238;BME280;13185;50.872;5.306;2024-01-30T07:55:31;102337.56;;;8.42;100.00
25238;BME280;13185;50.872;5.306;2024-01-30T07:58:01;102342.84;;;8.45;100.00
25238;BME280;13185;50.872;5.306;2024-01-30T08:00:27;102354.34;;;8.47;100.00
25238;BME280;13185;50.872;5.306;2024-01-30T08:02:54;102357.84;;;8.49;100.00
25238;BME280;13185;50.872;5.306;2024-01-30T08:05:21;102360.47;;;8.51;100.00
25238;BME280;13185;50.872;5.306;2024-01-30T08:07:48;102360.41;;;8.52;100.00
25238;BME280;13185;50.872;5.306;2024-01-30T08:10:15;102370.09;;;8.56;100.00
25238;BME280;13185;50.872;5.306;2024-01-30T08:12:41;102377.09;;;8.60;100.00
25238;BME280;13185;50.872;5.306;2024-01-30T08:15:07;102374.28;;;8.63;100.00
25238;BME280;13185;50.872;5.306;2024-01-30T08:17:33;102376.91;;;8.66;100.00
25238;BME280;13185;50.872;5.306;2024-01-30T08:19:59;102379.41;;;8.71;100.00
25238;BME280;13185;50.872;5.306;2024-01-30T08:22:25;102366.84;;;8.73;100.00
25238;BME280;13185;50.872;5.306;2024-01-30T08:24:51;102370.31;;;8.77;100.00
25238;BME280;13185;50.872;5.306;2024-01-30T08:27:19;102368.41;;;8.80;100.00
25238;BME280;13185;50.872;5.306;2024-01-30T08:29:45;102366.50;;;8.84;100.00
25238;BME280;13185;50.872;5.306;2024-01-30T08:32:11;102358.41;;;8.85;100.00
25238;BME280;13185;50.872;5.306;2024-01-30T08:34:37;102365.41;;;8.89;100.00
25238;BME280;13185;50.872;5.306;2024-01-30T08:37:03;102364.50;;;8.90;100.00
25238;BME280;13185;50.872;5.306;2024-01-30T08:39:28;102370.72;;;8.91;100.00
25238;BME280;13185;50.872;5.306;2024-01-30T08:41:54;102372.41;;;8.93;100.00
25238;BME280;13185;50.872;5.306;2024-01-30T08:44:19;102377.69;;;8.96;100.00
25238;BME280;13185;50.872;5.306;2024-01-30T08:46:45;102378.50;;;8.99;100.00
25238;BME280;13185;50.872;5.306;2024-01-30T08:49:11;102373.97;;;9.01;100.00
25238;BME280;13185;50.872;5.306;2024-01-30T08:51:39;102381.00;;;9.03;100.00
25238;BME280;13185;50.872;5.306;2024-01-30T08:54:04;102386.28;;;9.05;100.00
25238;BME280;13185;50.872;5.306;2024-01-30T08:56:30;102386.25;;;9.06;100.00
25238;BME280;13185;50.872;5.306;2024-01-30T08:58:56;102378.13;;;9.09;100.00
25238;BME280;13185;50.872;5.306;2024-01-30T09:01:21;102384.25;;;9.13;100.00
25238;BME280;13185;50.872;5.306;2024-01-30T09:03:47;102393.88;;;9.18;100.00
25238;BME280;13185;50.872;5.306;2024-01-30T09:06:12;102396.31;;;9.24;100.00
25238;BME280;13185;50.872;5.306;2024-01-30T09:08:38;102396.13;;;9.31;100.00
25238;BME280;13185;50.872;5.306;2024-01-30T09:11:15;102395.94;;;9.35;100.00
25238;BME280;13185;50.872;5.306;2024-01-30T09:13:41;102402.91;;;9.41;100.00
25238;BME280;13185;50.872;5.306;2024-01-30T09:16:07;102392.06;;;9.44;100.00
25238;BME280;13185;50.872;5.306;2024-01-30T09:18:33;102396.34;;;9.49;100.00
25238;BME280;13185;50.872;5.306;2024-01-30T09:20:58;102403.38;;;9.52;100.00
25238;BME280;13185;50.872;5.306;2024-01-30T09:23:24;102397.91;;;9.55;100.00
25238;BME280;13185;50.872;5.306;2024-01-30T09:25:50;102398.66;;;9.59;100.00
25238;BME280;13185;50.872;5.306;2024-01-30T09:28:17;102396.75;;;9.62;100.00
25238;BME280;13185;50.872;5.306;2024-01-30T09:30:43;102398.44;;;9.65;100.00
25238;BME280;13185;50.872;5.306;2024-01-30T09:33:09;102401.00;;;9.68;100.00
25238;BME280;13185;50.872;5.306;2024-01-30T09:35:35;102414.31;;;9.71;100.00
25238;BME280;13185;50.872;5.306;2024-01-30T09:38:01;102413.25;;;9.75;100.00
25238;BME280;13185;50.872;5.306;2024-01-30T09:40:27;102418.41;;;9.81;100.00
25238;BME280;13185;50.872;5.306;2024-01-30T09:42:53;102420.97;;;9.84;100.00
25238;BME280;13185;50.872;5.306;2024-01-30T09:45:20;102415.41;;;9.90;100.00
25238;BME280;13185;50.872;5.306;2024-01-30T09:47:48;102411.53;;;9.97;100.00
25238;BME280;13185;50.872;5.306;2024-01-30T09:50:15;102415.84;;;10.01;100.00
25238;BME280;13185;50.872;5.306;2024-01-30T09:52:41;102412.94;;;10.07;100.00
25238;BME280;13185;50.872;5.306;2024-01-30T09:55:08;102425.25;;;10.13;100.00
25238;BME280;13185;50.872;5.306;2024-01-30T09:57:36;102428.72;;;10.15;100.00
25238;BME280;13185;50.872;5.306;2024-01-30T10:00:03;102430.34;;;10.19;100.00
25238;BME280;13185;50.872;5.306;2024-01-30T10:02:38;102422.19;;;10.24;100.00
25238;BME280;13185;50.872;5.306;2024-01-30T10:05:04;102419.31;;;10.28;100.00
25238;BME280;13185;50.872;5.306;2024-01-30T10:07:30;102433.44;;;10.33;100.00
25238;BME280;13185;50.872;5.306;2024-01-30T10:09:56;102430.56;;;10.38;100.00
25238;BME280;13185;50.872;5.306;2024-01-30T10:12:29;102428.59;;;10.43;100.00
25238;BME280;13185;50.872;5.306;2024-01-30T10:14:56;102433.63;;;10.51;100.00
25238;BME280;13185;50.872;5.306;2024-01-30T10:17:24;102426.16;;;10.59;100.00
25238;BME280;13185;50.872;5.306;2024-01-30T10:19:50;102422.28;;;10.66;100.00
25238;BME280;13185;50.872;5.306;2024-01-30T10:22:16;102423.84;;;10.72;100.00
25238;BME280;13185;50.872;5.306;2024-01-30T10:24:42;102431.81;;;10.73;100.00
25238;BME280;13185;50.872;5.306;2024-01-30T10:27:10;102421.94;;;10.75;100.00
25238;BME280;13185;50.872;5.306;2024-01-30T10:29:37;102419.97;;;10.79;100.00
25238;BME280;13185;50.872;5.306;2024-01-30T10:32:03;102415.41;;;10.81;100.00
25238;BME280;13185;50.872;5.306;2024-01-30T10:34:30;102420.72;;;10.82;100.00
25238;BME280;13185;50.872;5.306;2024-01-30T10:39:29;102430.13;;;10.92;100.00
25238;BME280;13185;50.872;5.306;2024-01-30T10:42:04;102421.91;;;10.97;100.00
25238;BME280;13185;50.872;5.306;2024-01-30T10:44:46;102427.06;;;11.02;100.00
25238;BME280;13185;50.872;5.306;2024-01-30T10:47:18;102430.56;;;11.04;100.00
25238;BME280;13185;50.872;5.306;2024-01-30T10:49:47;102438.50;;;11.07;100.00
25238;BME280;13185;50.872;5.306;2024-01-30T10:52:13;102436.63;;;11.09;100.00
25238;BME280;13185;50.872;5.306;2024-01-30T10:54:40;102439.38;;;11.07;100.00
25238;BME280;13185;50.872;5.306;2024-01-30T10:57:06;102435.91;;;11.05;100.00
25238;BME280;13185;50.872;5.306;2024-01-30T10:59:32;102440.31;;;11.06;100.00
25238;BME280;13185;50.872;5.306;2024-01-30T11:01:58;102443.88;;;11.07;100.00
25238;BME280;13185;50.872;5.306;2024-01-30T11:04:24;102452.00;;;11.05;100.00
25238;BME280;13185;50.872;5.306;2024-01-30T11:06:51;102443.19;;;11.02;100.00
25238;BME280;13185;50.872;5.306;2024-01-30T11:09:17;102452.25;;;10.99;100.00
25238;BME280;13185;50.872;5.306;2024-01-30T11:14:15;102443.47;;;10.95;100.00
25238;BME280;13185;50.872;5.306;2024-01-30T11:16:40;102447.13;;;10.93;100.00
25238;BME280;13185;50.872;5.306;2024-01-30T11:19:10;102444.50;;;10.91;100.00
25238;BME280;13185;50.872;5.306;2024-01-30T11:21:43;102449.88;;;10.91;100.00
25238;BME280;13185;50.872;5.306;2024-01-30T11:24:09;102448.06;;;10.92;100.00
25238;BME280;13185;50.872;5.306;2024-01-30T11:26:34;102441.00;;;10.89;100.00
25238;BME280;13185;50.872;5.306;2024-01-30T11:29:03;102447.31;;;10.88;100.00
25238;BME280;13185;50.872;5.306;2024-01-30T11:31:29;102448.25;;;10.87;100.00
25238;BME280;13185;50.872;5.306;2024-01-30T12:23:56;102446.19;;;10.72;100.00
25238;BME280;13185;50.872;5.306;2024-01-30T12:26:24;102453.25;;;10.75;100.00
25238;BME280;13185;50.872;5.306;2024-01-30T12:28:51;102449.56;;;10.77;100.00
25238;BME280;13185;50.872;5.306;2024-01-30T12:31:25;102461.09;;;10.79;100.00
25238;BME280;13185;50.872;5.306;2024-01-30T12:33:52;102452.06;;;10.82;100.00
25238;BME280;13185;50.872;5.306;2024-01-30T12:36:17;102455.59;;;10.82;100.00
25238;BME280;13185;50.872;5.306;2024-01-30T12:38:43;102451.97;;;10.83;100.00
25238;BME280;13185;50.872;5.306;2024-01-30T12:41:09;102460.00;;;10.85;100.00
25238;BME280;13185;50.872;5.306;2024-01-30T12:43:35;102465.38;;;10.85;100.00
25238;BME280;13185;50.872;5.306;2024-01-30T12:46:02;102467.22;;;10.83;100.00
25238;BME280;13185;50.872;5.306;2024-01-30T12:48:28;102480.19;;;10.72;100.00
25238;BME280;13185;50.872;5.306;2024-01-30T12:50:56;102494.88;;;10.63;100.00
25238;BME280;13185;50.872;5.306;2024-01-30T12:53:21;102487.97;;;10.56;100.00
25238;BME280;13185;50.872;5.306;2024-01-30T12:55:47;102492.56;;;10.52;100.00
25238;BME280;13185;50.872;5.306;2024-01-30T12:58:12;102492.63;;;10.51;100.00
25238;BME280;13185;50.872;5.306;2024-01-30T13:00:38;102492.75;;;10.48;100.00
25238;BME280;13185;50.872;5.306;2024-01-30T13:03:04;102489.06;;;10.50;100.00
25238;BME280;13185;50.872;5.306;2024-01-30T13:05:29;102497.03;;;10.53;100.00
25238;BME280;13185;50.872;5.306;2024-01-30T13:07:55;102489.78;;;10.55;100.00
25238;BME280;13185;50.872;5.306;2024-01-30T13:10:23;102499.66;;;10.55;100.00
25238;BME280;13185;50.872;5.306;2024-01-30T13:12:48;102495.31;;;10.51;100.00
25238;BME280;13185;50.872;5.306;2024-01-30T13:15:13;102492.56;;;10.52;100.00
25238;BME280;13185;50.872;5.306;2024-01-30T13:17:39;102488.16;;;10.51;100.00
25238;BME280;13185;50.872;5.306;2024-01-30T13:20:05;102484.50;;;10.54;100.00
25238;BME280;13185;50.872;5.306;2024-01-30T13:22:33;102494.34;;;10.53;100.00
25238;BME280;13185;50.872;5.306;2024-01-30T13:24:59;102506.97;;;10.50;100.00
25238;BME280;13185;50.872;5.306;2024-01-30T13:27:24;102501.69;;;10.48;100.00
25238;BME280;13185;50.872;5.306;2024-01-30T13:29:50;102506.41;;;10.41;100.00
25238;BME280;13185;50.872;5.306;2024-01-30T13:32:15;102512.69;;;10.40;100.00
25238;BME280;13185;50.872;5.306;2024-01-30T13:34:41;102517.13;;;10.41;100.00
25238;BME280;13185;50.872;5.306;2024-01-30T13:37:07;102525.88;;;10.47;100.00